<?xml version="1.0" encoding="UTF-8" standalone="no" ?><gpx xmlns="http://www.topografix.com/GPX/1/1" xmlns:gpxx="http://www.garmin.com/xmlschemas/GpxExtensions/v3" xmlns:wptx1="http://www.garmin.com/xmlschemas/WaypointExtension/v1" xmlns:gpxtpx="http://www.garmin.com/xmlschemas/TrackPointExtension/v1" creator="Astro 320" version="1.1" xmlns:xsi="http://www.w3.org/2001/XMLSchema-instance" xsi:schemaLocation="http://www.topografix.com/GPX/1/1 http://www.topografix.com/GPX/1/1/gpx.xsd http://www.garmin.com/xmlschemas/GpxExtensions/v3 http://www8.garmin.com/xmlschemas/GpxExtensionsv3.xsd http://www.garmin.com/xmlschemas/WaypointExtension/v1 http://www8.garmin.com/xmlschemas/WaypointExtensionv1.xsd http://www.garmin.com/xmlschemas/TrackPointExtension/v1 http://www.garmin.com/xmlschemas/TrackPointExtensionv1.xsd"><metadata><link href="http://www.garmin.com"><text>Garmin International</text></link><time>2026-08-30T12:59:06Z</time></metadata><trk><name>Текущий трек: 29 АВГ 2026 15:32</name><extensions><gpxx:TrackExtension><gpxx:DisplayColor>Red</gpxx:DisplayColor></gpxx:TrackExtension></extensions><trkseg><trkpt lat="60.2603307087" lon="30.4665662907"><ele>17.92</ele><time>2026-08-29T12:32:08Z</time></trkpt><trkpt lat="60.2603369113" lon="30.4665696435"><ele>18.40</ele><time>2026-08-29T12:32:30Z</time></trkpt><trkpt lat="60.2603331394" lon="30.4665863235"><ele>19.36</ele><time>2026-08-29T12:32:54Z</time></trkpt><trkpt lat="60.2603405155" lon="30.4665805399"><ele>20.32</ele><time>2026-08-29T12:33:24Z</time></trkpt><trkpt lat="60.2603436168" lon="30.4665709846"><ele>20.32</ele><time>2026-08-29T12:33:39Z</time></trkpt><trkpt lat="60.2603462990" lon="30.4665658716"><ele>20.81</ele><time>2026-08-29T12:33:49Z</time></trkpt><trkpt lat="60.2603572793" lon="30.4665580764"><ele>21.77</ele><time>2026-08-29T12:34:21Z</time></trkpt><trkpt lat="60.2603597101" lon="30.4665498622"><ele>23.21</ele><time>2026-08-29T12:34:38Z</time></trkpt><trkpt lat="60.2603601292" lon="30.4665354453"><ele>24.17</ele><time>2026-08-29T12:35:08Z</time></trkpt><trkpt lat="60.2603607159" lon="30.4665442463"><ele>24.65</ele><time>2026-08-29T12:35:17Z</time></trkpt><trkpt lat="60.2603674214" lon="30.4665435757"><ele>25.13</ele><time>2026-08-29T12:35:25Z</time></trkpt><trkpt lat="60.2603686787" lon="30.4665431567"><ele>25.61</ele><time>2026-08-29T12:35:45Z</time></trkpt><trkpt lat="60.2603671700" lon="30.4665472638"><ele>26.09</ele><time>2026-08-29T12:36:01Z</time></trkpt><trkpt lat="60.2603702713" lon="30.4665520415"><ele>26.57</ele><time>2026-08-29T12:36:29Z</time></trkpt><trkpt lat="60.2603687625" lon="30.4665522091"><ele>27.05</ele><time>2026-08-29T12:36:42Z</time></trkpt><trkpt lat="60.2603673376" lon="30.4665816296"><ele>27.53</ele><time>2026-08-29T12:36:52Z</time></trkpt><trkpt lat="60.2603607997" lon="30.4665614292"><ele>27.53</ele><time>2026-08-29T12:36:57Z</time></trkpt><trkpt lat="60.2603685949" lon="30.4665597528"><ele>27.53</ele><time>2026-08-29T12:37:06Z</time></trkpt><trkpt lat="60.2603636496" lon="30.4665505327"><ele>28.02</ele><time>2026-08-29T12:37:15Z</time></trkpt><trkpt lat="60.2603649907" lon="30.4665598366"><ele>28.50</ele><time>2026-08-29T12:37:30Z</time></trkpt><trkpt lat="60.2603673376" lon="30.4665756784"><ele>28.50</ele><time>2026-08-29T12:37:42Z</time></trkpt><trkpt lat="60.2603663318" lon="30.4665924422"><ele>28.98</ele><time>2026-08-29T12:37:55Z</time></trkpt><trkpt lat="60.2603759710" lon="30.4665972199"><ele>29.46</ele><time>2026-08-29T12:38:08Z</time></trkpt><trkpt lat="60.2603721153" lon="30.4665847309"><ele>29.46</ele><time>2026-08-29T12:38:25Z</time></trkpt><trkpt lat="60.2603758872" lon="30.4665639438"><ele>29.94</ele><time>2026-08-29T12:38:34Z</time></trkpt><trkpt lat="60.2603543457" lon="30.4666130617"><ele>29.94</ele><time>2026-08-29T12:38:42Z</time></trkpt><trkpt lat="60.2603612188" lon="30.4666083679"><ele>30.42</ele><time>2026-08-29T12:38:53Z</time></trkpt><trkpt lat="60.2603448741" lon="30.4665947054"><ele>30.42</ele><time>2026-08-29T12:39:03Z</time></trkpt><trkpt lat="60.2603409346" lon="30.4665973037"><ele>30.90</ele><time>2026-08-29T12:39:11Z</time></trkpt><trkpt lat="60.2603515796" lon="30.4665563162"><ele>30.90</ele><time>2026-08-29T12:39:19Z</time></trkpt><trkpt lat="60.2603478916" lon="30.4665406421"><ele>31.38</ele><time>2026-08-29T12:39:31Z</time></trkpt><trkpt lat="60.2603566926" lon="30.4666011594"><ele>31.38</ele><time>2026-08-29T12:39:39Z</time></trkpt><trkpt lat="60.2603680082" lon="30.4666049313"><ele>31.38</ele><time>2026-08-29T12:39:47Z</time></trkpt><trkpt lat="60.2603510767" lon="30.4665995669"><ele>31.86</ele><time>2026-08-29T12:39:57Z</time></trkpt><trkpt lat="60.2603494003" lon="30.4666068591"><ele>31.86</ele><time>2026-08-29T12:40:07Z</time></trkpt><trkpt lat="60.2603556868" lon="30.4666044284"><ele>32.34</ele><time>2026-08-29T12:40:17Z</time></trkpt><trkpt lat="60.2603582852" lon="30.4666202702"><ele>32.34</ele><time>2026-08-29T12:40:32Z</time></trkpt><trkpt lat="60.2603585366" lon="30.4666252155"><ele>32.82</ele><time>2026-08-29T12:40:44Z</time></trkpt><trkpt lat="60.2603593748" lon="30.4666242935"><ele>32.82</ele><time>2026-08-29T12:40:47Z</time></trkpt><trkpt lat="60.2603478078" lon="30.4666167498"><ele>32.82</ele><time>2026-08-29T12:40:56Z</time></trkpt><trkpt lat="60.2603447065" lon="30.4666118883"><ele>33.30</ele><time>2026-08-29T12:41:07Z</time></trkpt><trkpt lat="60.2603468858" lon="30.4666071944"><ele>33.30</ele><time>2026-08-29T12:41:16Z</time></trkpt><trkpt lat="60.2603459638" lon="30.4666032549"><ele>33.78</ele><time>2026-08-29T12:41:27Z</time></trkpt><trkpt lat="60.2603468020" lon="30.4666015785"><ele>34.26</ele><time>2026-08-29T12:41:40Z</time></trkpt><trkpt lat="60.2603464667" lon="30.4665977228"><ele>34.26</ele><time>2026-08-29T12:41:51Z</time></trkpt><trkpt lat="60.2603472210" lon="30.4666019138"><ele>34.74</ele><time>2026-08-29T12:42:07Z</time></trkpt><trkpt lat="60.2603478916" lon="30.4666009918"><ele>34.74</ele><time>2026-08-29T12:42:17Z</time></trkpt><trkpt lat="60.2603447903" lon="30.4666029196"><ele>35.23</ele><time>2026-08-29T12:42:31Z</time></trkpt><trkpt lat="60.2603167109" lon="30.4666042607"><ele>35.23</ele><time>2026-08-29T12:42:43Z</time></trkpt><trkpt lat="60.2602851950" lon="30.4665310867"><ele>35.71</ele><time>2026-08-29T12:42:51Z</time></trkpt><trkpt lat="60.2602686826" lon="30.4664030951"><ele>35.71</ele><time>2026-08-29T12:42:57Z</time></trkpt><trkpt lat="60.2602155413" lon="30.4661978222"><ele>35.71</ele><time>2026-08-29T12:43:07Z</time></trkpt><trkpt lat="60.2601516712" lon="30.4660564195"><ele>36.19</ele><time>2026-08-29T12:43:15Z</time></trkpt><trkpt lat="60.2600996196" lon="30.4658980854"><ele>36.19</ele><time>2026-08-29T12:43:26Z</time></trkpt><trkpt lat="60.2600690257" lon="30.4658368137"><ele>36.67</ele><time>2026-08-29T12:43:31Z</time></trkpt><trkpt lat="60.2599962708" lon="30.4656928964"><ele>37.15</ele><time>2026-08-29T12:43:41Z</time></trkpt><trkpt lat="60.2599768247" lon="30.4657240771"><ele>38.59</ele><time>2026-08-29T12:43:52Z</time></trkpt><trkpt lat="60.2599635813" lon="30.4657194670"><ele>39.55</ele><time>2026-08-29T12:44:17Z</time></trkpt><trkpt lat="60.2599479910" lon="30.4657229036"><ele>39.55</ele><time>2026-08-29T12:44:32Z</time></trkpt><trkpt lat="60.2599382680" lon="30.4657008592"><ele>40.03</ele><time>2026-08-29T12:44:58Z</time></trkpt><trkpt lat="60.2599366754" lon="30.4657021165"><ele>40.51</ele><time>2026-08-29T12:45:15Z</time></trkpt><trkpt lat="60.2599375974" lon="30.4656975064"><ele>40.99</ele><time>2026-08-29T12:45:37Z</time></trkpt><trkpt lat="60.2599381842" lon="30.4656990990"><ele>40.99</ele><time>2026-08-29T12:45:56Z</time></trkpt><trkpt lat="60.2599397767" lon="30.4657112528"><ele>41.47</ele><time>2026-08-29T12:46:19Z</time></trkpt><trkpt lat="60.2599383518" lon="30.4657119233"><ele>41.95</ele><time>2026-08-29T12:46:36Z</time></trkpt><trkpt lat="60.2599327359" lon="30.4657232389"><ele>42.44</ele><time>2026-08-29T12:46:57Z</time></trkpt><trkpt lat="60.2599236835" lon="30.4657307826"><ele>42.92</ele><time>2026-08-29T12:47:22Z</time></trkpt><trkpt lat="60.2599231806" lon="30.4657249153"><ele>42.92</ele><time>2026-08-29T12:47:41Z</time></trkpt><trkpt lat="60.2599469852" lon="30.4656848498"><ele>43.40</ele><time>2026-08-29T12:47:50Z</time></trkpt><trkpt lat="60.2599514276" lon="30.4656908009"><ele>43.40</ele><time>2026-08-29T12:47:51Z</time></trkpt><trkpt lat="60.2600297984" lon="30.4658028670"><ele>43.40</ele><time>2026-08-29T12:48:00Z</time></trkpt><trkpt lat="60.2600427903" lon="30.4658777174"><ele>43.40</ele><time>2026-08-29T12:48:04Z</time></trkpt><trkpt lat="60.2601027209" lon="30.4659841675"><ele>42.44</ele><time>2026-08-29T12:48:13Z</time></trkpt><trkpt lat="60.2601318900" lon="30.4660975747"><ele>42.44</ele><time>2026-08-29T12:48:18Z</time></trkpt><trkpt lat="60.2601429541" lon="30.4661763646"><ele>42.44</ele><time>2026-08-29T12:48:21Z</time></trkpt><trkpt lat="60.2601922397" lon="30.4663486127"><ele>42.92</ele><time>2026-08-29T12:48:29Z</time></trkpt><trkpt lat="60.2602746338" lon="30.4665584955"><ele>42.92</ele><time>2026-08-29T12:48:39Z</time></trkpt><trkpt lat="60.2603121847" lon="30.4666096251"><ele>42.92</ele><time>2026-08-29T12:48:51Z</time></trkpt><trkpt lat="60.2603278589" lon="30.4666092061"><ele>42.92</ele><time>2026-08-29T12:49:11Z</time></trkpt><trkpt lat="60.2603323013" lon="30.4666121397"><ele>43.40</ele><time>2026-08-29T12:49:25Z</time></trkpt><trkpt lat="60.2603387553" lon="30.4666294064"><ele>43.40</ele><time>2026-08-29T12:49:30Z</time></trkpt><trkpt lat="60.2603417728" lon="30.4666207731"><ele>43.40</ele><time>2026-08-29T12:49:39Z</time></trkpt><trkpt lat="60.2603405155" lon="30.4666170850"><ele>43.88</ele><time>2026-08-29T12:49:51Z</time></trkpt><trkpt lat="60.2603449579" lon="30.4666143190"><ele>43.88</ele><time>2026-08-29T12:50:06Z</time></trkpt><trkpt lat="60.2603499033" lon="30.4666138161"><ele>44.36</ele><time>2026-08-29T12:50:37Z</time></trkpt><trkpt lat="60.2603560220" lon="30.4666157439"><ele>44.84</ele><time>2026-08-29T12:51:05Z</time></trkpt><trkpt lat="60.2603646554" lon="30.4666053504"><ele>45.32</ele><time>2026-08-29T12:51:20Z</time></trkpt><trkpt lat="60.2603579499" lon="30.4666040931"><ele>45.32</ele><time>2026-08-29T12:51:22Z</time></trkpt><trkpt lat="60.2603548486" lon="30.4665852338"><ele>45.32</ele><time>2026-08-29T12:51:29Z</time></trkpt><trkpt lat="60.2603506576" lon="30.4665871616"><ele>45.32</ele><time>2026-08-29T12:51:43Z</time></trkpt><trkpt lat="60.2603446227" lon="30.4665823840"><ele>45.80</ele><time>2026-08-29T12:51:54Z</time></trkpt><trkpt lat="60.2603526693" lon="30.4665872455"><ele>45.80</ele><time>2026-08-29T12:52:04Z</time></trkpt><trkpt lat="60.2603535075" lon="30.4665889218"><ele>45.80</ele><time>2026-08-29T12:52:08Z</time></trkpt><trkpt lat="60.2603611350" lon="30.4665463418"><ele>45.80</ele><time>2026-08-29T12:52:14Z</time></trkpt><trkpt lat="60.2603422757" lon="30.4665758461"><ele>45.80</ele><time>2026-08-29T12:52:21Z</time></trkpt><trkpt lat="60.2603407670" lon="30.4665771872"><ele>46.28</ele><time>2026-08-29T12:52:32Z</time></trkpt><trkpt lat="60.2602903079" lon="30.4665272310"><ele>46.28</ele><time>2026-08-29T12:52:36Z</time></trkpt><trkpt lat="60.2602817584" lon="30.4664645344"><ele>46.28</ele><time>2026-08-29T12:52:42Z</time></trkpt><trkpt lat="60.2603341453" lon="30.4666312505"><ele>46.76</ele><time>2026-08-29T12:52:55Z</time></trkpt><trkpt lat="60.2603792399" lon="30.4665785283"><ele>46.76</ele><time>2026-08-29T12:53:08Z</time></trkpt><trkpt lat="60.2603640687" lon="30.4666558933"><ele>47.24</ele><time>2026-08-29T12:53:20Z</time></trkpt><trkpt lat="60.2604798228" lon="30.4670162313"><ele>48.20</ele><time>2026-08-29T12:53:29Z</time></trkpt><trkpt lat="60.2606894542" lon="30.4676758032"><ele>48.68</ele><time>2026-08-29T12:53:40Z</time></trkpt><trkpt lat="60.2607428469" lon="30.4677149467"><ele>48.68</ele><time>2026-08-29T12:53:42Z</time></trkpt><trkpt lat="60.2607680764" lon="30.4677112587"><ele>48.68</ele><time>2026-08-29T12:53:43Z</time></trkpt><trkpt lat="60.2607985027" lon="30.4676845204"><ele>48.68</ele><time>2026-08-29T12:53:44Z</time></trkpt><trkpt lat="60.2608291805" lon="30.4676391743"><ele>48.68</ele><time>2026-08-29T12:53:45Z</time></trkpt><trkpt lat="60.2608613670" lon="30.4675770644"><ele>48.68</ele><time>2026-08-29T12:53:46Z</time></trkpt><trkpt lat="60.2608951461" lon="30.4675064050"><ele>48.68</ele><time>2026-08-29T12:53:47Z</time></trkpt><trkpt lat="60.2614198532" lon="30.4664821364"><ele>49.16</ele><time>2026-08-29T12:54:01Z</time></trkpt><trkpt lat="60.2615827974" lon="30.4663172644"><ele>49.16</ele><time>2026-08-29T12:54:06Z</time></trkpt><trkpt lat="60.2616112959" lon="30.4663603473"><ele>49.16</ele><time>2026-08-29T12:54:07Z</time></trkpt><trkpt lat="60.2616324183" lon="30.4664221220"><ele>49.16</ele><time>2026-08-29T12:54:08Z</time></trkpt><trkpt lat="60.2619771659" lon="30.4673273675"><ele>50.13</ele><time>2026-08-29T12:54:19Z</time></trkpt><trkpt lat="60.2622354124" lon="30.4679501429"><ele>50.61</ele><time>2026-08-29T12:54:27Z</time></trkpt><trkpt lat="60.2622774057" lon="30.4679723550"><ele>50.61</ele><time>2026-08-29T12:54:28Z</time></trkpt><trkpt lat="60.2623159625" lon="30.4679622967"><ele>50.61</ele><time>2026-08-29T12:54:29Z</time></trkpt><trkpt lat="60.2623515017" lon="30.4679190461"><ele>50.61</ele><time>2026-08-29T12:54:30Z</time></trkpt><trkpt lat="60.2623894718" lon="30.4678579420"><ele>50.61</ele><time>2026-08-29T12:54:31Z</time></trkpt><trkpt lat="60.2624341473" lon="30.4677791521"><ele>50.61</ele><time>2026-08-29T12:54:32Z</time></trkpt><trkpt lat="60.2627708483" lon="30.4671649262"><ele>50.61</ele><time>2026-08-29T12:54:39Z</time></trkpt><trkpt lat="60.2628183737" lon="30.4671031516"><ele>50.61</ele><time>2026-08-29T12:54:40Z</time></trkpt><trkpt lat="60.2628736105" lon="30.4670565482"><ele>50.61</ele><time>2026-08-29T12:54:41Z</time></trkpt><trkpt lat="60.2629400790" lon="30.4670231882"><ele>50.61</ele><time>2026-08-29T12:54:42Z</time></trkpt><trkpt lat="60.2630093973" lon="30.4669992160"><ele>50.61</ele><time>2026-08-29T12:54:43Z</time></trkpt><trkpt lat="60.2636504453" lon="30.4668053426"><ele>51.57</ele><time>2026-08-29T12:54:53Z</time></trkpt><trkpt lat="60.2638466656" lon="30.4667160753"><ele>52.05</ele><time>2026-08-29T12:55:00Z</time></trkpt><trkpt lat="60.2638651058" lon="30.4667809512"><ele>52.53</ele><time>2026-08-29T12:55:04Z</time></trkpt><trkpt lat="60.2638807800" lon="30.4669084400"><ele>52.53</ele><time>2026-08-29T12:55:06Z</time></trkpt><trkpt lat="60.2638994716" lon="30.4670272116"><ele>53.01</ele><time>2026-08-29T12:55:07Z</time></trkpt><trkpt lat="60.2639851347" lon="30.4677041341"><ele>56.37</ele><time>2026-08-29T12:55:11Z</time></trkpt><trkpt lat="60.2640613262" lon="30.4683096427"><ele>60.22</ele><time>2026-08-29T12:55:14Z</time></trkpt><trkpt lat="60.2641574666" lon="30.4689543787"><ele>63.58</ele><time>2026-08-29T12:55:17Z</time></trkpt><trkpt lat="60.2643738873" lon="30.4702965729"><ele>66.95</ele><time>2026-08-29T12:55:23Z</time></trkpt><trkpt lat="60.2647304535" lon="30.4723047931"><ele>63.58</ele><time>2026-08-29T12:55:31Z</time></trkpt><trkpt lat="60.2650797274" lon="30.4742239974"><ele>60.70</ele><time>2026-08-29T12:55:38Z</time></trkpt><trkpt lat="60.2654557396" lon="30.4761939123"><ele>59.74</ele><time>2026-08-29T12:55:46Z</time></trkpt><trkpt lat="60.2655281592" lon="30.4767125007"><ele>55.89</ele><time>2026-08-29T12:55:49Z</time></trkpt><trkpt lat="60.2655682247" lon="30.4769672267"><ele>52.53</ele><time>2026-08-29T12:55:51Z</time></trkpt><trkpt lat="60.2655907720" lon="30.4771126527"><ele>49.65</ele><time>2026-08-29T12:55:53Z</time></trkpt><trkpt lat="60.2655726671" lon="30.4772316758"><ele>47.24</ele><time>2026-08-29T12:55:56Z</time></trkpt><trkpt lat="60.2653397340" lon="30.4774640221"><ele>50.61</ele><time>2026-08-29T12:56:02Z</time></trkpt><trkpt lat="60.2652337030" lon="30.4776514415"><ele>53.97</ele><time>2026-08-29T12:56:05Z</time></trkpt><trkpt lat="60.2649521548" lon="30.4781853687"><ele>55.41</ele><time>2026-08-29T12:56:15Z</time></trkpt><trkpt lat="60.2646847721" lon="30.4788402468"><ele>55.89</ele><time>2026-08-29T12:56:27Z</time></trkpt><trkpt lat="60.2644537669" lon="30.4794646148"><ele>54.93</ele><time>2026-08-29T12:56:40Z</time></trkpt><trkpt lat="60.2642968576" lon="30.4802153818"><ele>54.93</ele><time>2026-08-29T12:56:50Z</time></trkpt><trkpt lat="60.2642917447" lon="30.4803434573"><ele>54.93</ele><time>2026-08-29T12:56:51Z</time></trkpt><trkpt lat="60.2642960194" lon="30.4804742988"><ele>54.93</ele><time>2026-08-29T12:56:52Z</time></trkpt><trkpt lat="60.2643048204" lon="30.4806010332"><ele>54.93</ele><time>2026-08-29T12:56:53Z</time></trkpt><trkpt lat="60.2643178962" lon="30.4807213135"><ele>54.93</ele><time>2026-08-29T12:56:54Z</time></trkpt><trkpt lat="60.2643342409" lon="30.4808362294"><ele>54.93</ele><time>2026-08-29T12:56:55Z</time></trkpt><trkpt lat="60.2644137852" lon="30.4815156665"><ele>54.93</ele><time>2026-08-29T12:57:01Z</time></trkpt><trkpt lat="60.2644120250" lon="30.4818701372"><ele>54.93</ele><time>2026-08-29T12:57:04Z</time></trkpt><trkpt lat="60.2644032240" lon="30.4819684569"><ele>54.93</ele><time>2026-08-29T12:57:05Z</time></trkpt><trkpt lat="60.2643907350" lon="30.4820417985"><ele>54.93</ele><time>2026-08-29T12:57:06Z</time></trkpt><trkpt lat="60.2642884757" lon="30.4822850414"><ele>54.93</ele><time>2026-08-29T12:57:14Z</time></trkpt><trkpt lat="60.2640343364" lon="30.4828294460"><ele>54.93</ele><time>2026-08-29T12:57:25Z</time></trkpt><trkpt lat="60.2638060972" lon="30.4831171967"><ele>53.97</ele><time>2026-08-29T12:57:35Z</time></trkpt><trkpt lat="60.2637247927" lon="30.4834080487"><ele>53.49</ele><time>2026-08-29T12:57:43Z</time></trkpt><trkpt lat="60.2636025846" lon="30.4838618450"><ele>53.49</ele><time>2026-08-29T12:57:52Z</time></trkpt><trkpt lat="60.2633279935" lon="30.4844028130"><ele>53.01</ele><time>2026-08-29T12:58:07Z</time></trkpt><trkpt lat="60.2628802322" lon="30.4851544183"><ele>51.57</ele><time>2026-08-29T12:58:21Z</time></trkpt><trkpt lat="60.2625734545" lon="30.4857419897"><ele>50.13</ele><time>2026-08-29T12:58:35Z</time></trkpt><trkpt lat="60.2622503322" lon="30.4863406252"><ele>49.16</ele><time>2026-08-29T12:58:49Z</time></trkpt><trkpt lat="60.2620223444" lon="30.4867735505"><ele>48.68</ele><time>2026-08-29T12:59:01Z</time></trkpt><trkpt lat="60.2617316600" lon="30.4873208888"><ele>48.68</ele><time>2026-08-29T12:59:15Z</time></trkpt><trkpt lat="60.2615163289" lon="30.4878854938"><ele>48.20</ele><time>2026-08-29T12:59:26Z</time></trkpt><trkpt lat="60.2614080347" lon="30.4881949537"><ele>48.20</ele><time>2026-08-29T12:59:30Z</time></trkpt><trkpt lat="60.2609798033" lon="30.4889713693"><ele>48.20</ele><time>2026-08-29T12:59:38Z</time></trkpt><trkpt lat="60.2606931422" lon="30.4894313682"><ele>48.68</ele><time>2026-08-29T12:59:43Z</time></trkpt><trkpt lat="60.2606339660" lon="30.4894848447"><ele>48.68</ele><time>2026-08-29T12:59:44Z</time></trkpt><trkpt lat="60.2605763823" lon="30.4895191267"><ele>48.68</ele><time>2026-08-29T12:59:45Z</time></trkpt><trkpt lat="60.2605165355" lon="30.4895336274"><ele>48.68</ele><time>2026-08-29T12:59:46Z</time></trkpt><trkpt lat="60.2604666632" lon="30.4895323701"><ele>48.68</ele><time>2026-08-29T12:59:47Z</time></trkpt><trkpt lat="60.2604206465" lon="30.4895246588"><ele>48.68</ele><time>2026-08-29T12:59:48Z</time></trkpt><trkpt lat="60.2601997834" lon="30.4894104972"><ele>49.65</ele><time>2026-08-29T12:59:52Z</time></trkpt><trkpt lat="60.2597273793" lon="30.4887314793"><ele>49.65</ele><time>2026-08-29T12:59:59Z</time></trkpt><trkpt lat="60.2596578095" lon="30.4886591434"><ele>49.65</ele><time>2026-08-29T13:00:00Z</time></trkpt><trkpt lat="60.2596012317" lon="30.4886319023"><ele>49.65</ele><time>2026-08-29T13:00:01Z</time></trkpt><trkpt lat="60.2595503535" lon="30.4886216763"><ele>49.65</ele><time>2026-08-29T13:00:02Z</time></trkpt><trkpt lat="60.2595038339" lon="30.4886236880"><ele>49.65</ele><time>2026-08-29T13:00:03Z</time></trkpt><trkpt lat="60.2594602481" lon="30.4886546172"><ele>49.65</ele><time>2026-08-29T13:00:04Z</time></trkpt><trkpt lat="60.2594215237" lon="30.4887236841"><ele>49.65</ele><time>2026-08-29T13:00:05Z</time></trkpt><trkpt lat="60.2593876608" lon="30.4888219200"><ele>49.65</ele><time>2026-08-29T13:00:06Z</time></trkpt><trkpt lat="60.2593583241" lon="30.4889131989"><ele>49.65</ele><time>2026-08-29T13:00:07Z</time></trkpt><trkpt lat="60.2593335137" lon="30.4889982753"><ele>49.65</ele><time>2026-08-29T13:00:08Z</time></trkpt><trkpt lat="60.2592802886" lon="30.4891093355"><ele>49.65</ele><time>2026-08-29T13:00:10Z</time></trkpt><trkpt lat="60.2592469286" lon="30.4891179688"><ele>49.65</ele><time>2026-08-29T13:00:11Z</time></trkpt><trkpt lat="60.2592084557" lon="30.4891164601"><ele>49.65</ele><time>2026-08-29T13:00:12Z</time></trkpt><trkpt lat="60.2586988360" lon="30.4889176413"><ele>49.65</ele><time>2026-08-29T13:00:21Z</time></trkpt><trkpt lat="60.2580635715" lon="30.4887632467"><ele>50.13</ele><time>2026-08-29T13:00:32Z</time></trkpt><trkpt lat="60.2571305819" lon="30.4885417130"><ele>50.61</ele><time>2026-08-29T13:00:44Z</time></trkpt><trkpt lat="60.2560604643" lon="30.4882294033"><ele>52.53</ele><time>2026-08-29T13:00:57Z</time></trkpt><trkpt lat="60.2549279016" lon="30.4879718274"><ele>53.01</ele><time>2026-08-29T13:01:12Z</time></trkpt><trkpt lat="60.2548463456" lon="30.4878978990"><ele>53.01</ele><time>2026-08-29T13:01:17Z</time></trkpt><trkpt lat="60.2548487764" lon="30.4878754355"><ele>53.01</ele><time>2026-08-29T13:01:18Z</time></trkpt><trkpt lat="60.2547725011" lon="30.4876341205"><ele>52.05</ele><time>2026-08-29T13:01:30Z</time></trkpt><trkpt lat="60.2547830623" lon="30.4876335338"><ele>52.05</ele><time>2026-08-29T13:01:48Z</time></trkpt><trkpt lat="60.2547939587" lon="30.4876455199"><ele>52.05</ele><time>2026-08-29T13:02:09Z</time></trkpt><trkpt lat="60.2548029274" lon="30.4876627028"><ele>52.05</ele><time>2026-08-29T13:02:24Z</time></trkpt><trkpt lat="60.2548096329" lon="30.4876820650"><ele>52.05</ele><time>2026-08-29T13:02:37Z</time></trkpt><trkpt lat="60.2548189368" lon="30.4877015110"><ele>52.05</ele><time>2026-08-29T13:02:46Z</time></trkpt><trkpt lat="60.2548189368" lon="30.4876949731"><ele>52.53</ele><time>2026-08-29T13:03:00Z</time></trkpt><trkpt lat="60.2548132371" lon="30.4876871780"><ele>52.53</ele><time>2026-08-29T13:03:11Z</time></trkpt><trkpt lat="60.2548201103" lon="30.4877031036"><ele>52.53</ele><time>2026-08-29T13:03:24Z</time></trkpt><trkpt lat="60.2548236307" lon="30.4877080489"><ele>52.53</ele><time>2026-08-29T13:03:34Z</time></trkpt><trkpt lat="60.2548227087" lon="30.4877436720"><ele>53.01</ele><time>2026-08-29T13:03:50Z</time></trkpt><trkpt lat="60.2548272349" lon="30.4877347872"><ele>53.01</ele><time>2026-08-29T13:04:06Z</time></trkpt><trkpt lat="60.2548307553" lon="30.4877375532"><ele>53.01</ele><time>2026-08-29T13:04:17Z</time></trkpt><trkpt lat="60.2548568230" lon="30.4877347872"><ele>53.49</ele><time>2026-08-29T13:04:27Z</time></trkpt><trkpt lat="60.2548544761" lon="30.4877284169"><ele>53.49</ele><time>2026-08-29T13:04:46Z</time></trkpt><trkpt lat="60.2548667975" lon="30.4877560772"><ele>53.49</ele><time>2026-08-29T13:04:52Z</time></trkpt><trkpt lat="60.2548776940" lon="30.4877802171"><ele>53.49</ele><time>2026-08-29T13:04:53Z</time></trkpt><trkpt lat="60.2548897639" lon="30.4877915327"><ele>53.49</ele><time>2026-08-29T13:04:54Z</time></trkpt><trkpt lat="60.2549038455" lon="30.4878008366"><ele>53.49</ele><time>2026-08-29T13:04:55Z</time></trkpt><trkpt lat="60.2549152449" lon="30.4878150858"><ele>53.49</ele><time>2026-08-29T13:04:56Z</time></trkpt><trkpt lat="60.2549242973" lon="30.4878587555"><ele>53.49</ele><time>2026-08-29T13:04:58Z</time></trkpt><trkpt lat="60.2549341880" lon="30.4878950492"><ele>53.49</ele><time>2026-08-29T13:04:59Z</time></trkpt><trkpt lat="60.2549389657" lon="30.4879198596"><ele>53.49</ele><time>2026-08-29T13:05:00Z</time></trkpt><trkpt lat="60.2549391333" lon="30.4879506212"><ele>53.49</ele><time>2026-08-29T13:05:01Z</time></trkpt><trkpt lat="60.2549351938" lon="30.4879725818"><ele>53.49</ele><time>2026-08-29T13:05:02Z</time></trkpt><trkpt lat="60.2549261414" lon="30.4879842326"><ele>53.97</ele><time>2026-08-29T13:05:03Z</time></trkpt><trkpt lat="60.2549140714" lon="30.4879889265"><ele>53.97</ele><time>2026-08-29T13:05:04Z</time></trkpt><trkpt lat="60.2549015824" lon="30.4879885074"><ele>53.97</ele><time>2026-08-29T13:05:05Z</time></trkpt><trkpt lat="60.2548899315" lon="30.4879982304"><ele>53.97</ele><time>2026-08-29T13:05:06Z</time></trkpt><trkpt lat="60.2548755147" lon="30.4879990686"><ele>53.97</ele><time>2026-08-29T13:05:07Z</time></trkpt><trkpt lat="60.2548610978" lon="30.4879951291"><ele>53.97</ele><time>2026-08-29T13:05:08Z</time></trkpt><trkpt lat="60.2548479382" lon="30.4879880045"><ele>53.97</ele><time>2026-08-29T13:05:09Z</time></trkpt><trkpt lat="60.2548367064" lon="30.4879868310"><ele>53.97</ele><time>2026-08-29T13:05:10Z</time></trkpt><trkpt lat="60.2548246365" lon="30.4879932851"><ele>53.97</ele><time>2026-08-29T13:05:11Z</time></trkpt><trkpt lat="60.2548119798" lon="30.4879973922"><ele>53.97</ele><time>2026-08-29T13:05:12Z</time></trkpt><trkpt lat="60.2548008319" lon="30.4879983142"><ele>53.97</ele><time>2026-08-29T13:05:13Z</time></trkpt><trkpt lat="60.2547890134" lon="30.4879954644"><ele>53.97</ele><time>2026-08-29T13:05:14Z</time></trkpt><trkpt lat="60.2546924539" lon="30.4879433289"><ele>53.97</ele><time>2026-08-29T13:05:22Z</time></trkpt><trkpt lat="60.2545071300" lon="30.4878931213"><ele>53.97</ele><time>2026-08-29T13:05:34Z</time></trkpt><trkpt lat="60.2543346304" lon="30.4878825601"><ele>54.45</ele><time>2026-08-29T13:05:44Z</time></trkpt><trkpt lat="60.2542313654" lon="30.4878559895"><ele>54.45</ele><time>2026-08-29T13:05:52Z</time></trkpt><trkpt lat="60.2541975025" lon="30.4878634494"><ele>54.45</ele><time>2026-08-29T13:05:57Z</time></trkpt><trkpt lat="60.2541816607" lon="30.4878587555"><ele>54.45</ele><time>2026-08-29T13:05:58Z</time></trkpt><trkpt lat="60.2541655675" lon="30.4878567439"><ele>54.45</ele><time>2026-08-29T13:05:59Z</time></trkpt><trkpt lat="60.2540351450" lon="30.4878766090"><ele>54.45</ele><time>2026-08-29T13:06:08Z</time></trkpt><trkpt lat="60.2538993582" lon="30.4879640322"><ele>54.45</ele><time>2026-08-29T13:06:18Z</time></trkpt><trkpt lat="60.2538455464" lon="30.4879926983"><ele>54.45</ele><time>2026-08-29T13:06:21Z</time></trkpt><trkpt lat="60.2538278606" lon="30.4880066961"><ele>54.45</ele><time>2026-08-29T13:06:22Z</time></trkpt><trkpt lat="60.2538022958" lon="30.4880274832"><ele>54.93</ele><time>2026-08-29T13:06:24Z</time></trkpt><trkpt lat="60.2537857834" lon="30.4880397208"><ele>54.93</ele><time>2026-08-29T13:06:25Z</time></trkpt><trkpt lat="60.2536865417" lon="30.4881450813"><ele>54.93</ele><time>2026-08-29T13:06:32Z</time></trkpt><trkpt lat="60.2535663452" lon="30.4882195964"><ele>54.93</ele><time>2026-08-29T13:06:40Z</time></trkpt><trkpt lat="60.2534860466" lon="30.4882848077"><ele>55.89</ele><time>2026-08-29T13:06:47Z</time></trkpt><trkpt lat="60.2534465678" lon="30.4883580655"><ele>55.89</ele><time>2026-08-29T13:06:51Z</time></trkpt><trkpt lat="60.2533899061" lon="30.4884647671"><ele>56.37</ele><time>2026-08-29T13:06:57Z</time></trkpt><trkpt lat="60.2533731423" lon="30.4884818662"><ele>56.37</ele><time>2026-08-29T13:06:59Z</time></trkpt><trkpt lat="60.2533396147" lon="30.4885251168"><ele>56.37</ele><time>2026-08-29T13:07:02Z</time></trkpt><trkpt lat="60.2533028182" lon="30.4885751568"><ele>56.37</ele><time>2026-08-29T13:07:05Z</time></trkpt><trkpt lat="60.2531300671" lon="30.4886355065"><ele>56.86</ele><time>2026-08-29T13:07:13Z</time></trkpt><trkpt lat="60.2530372795" lon="30.4886787571"><ele>57.34</ele><time>2026-08-29T13:07:21Z</time></trkpt><trkpt lat="60.2530242037" lon="30.4886780027"><ele>57.34</ele><time>2026-08-29T13:07:22Z</time></trkpt><trkpt lat="60.2528412268" lon="30.4887070041"><ele>58.78</ele><time>2026-08-29T13:07:33Z</time></trkpt><trkpt lat="60.2527544741" lon="30.4887127876"><ele>59.26</ele><time>2026-08-29T13:07:42Z</time></trkpt><trkpt lat="60.2525944635" lon="30.4887355026"><ele>59.74</ele><time>2026-08-29T13:07:51Z</time></trkpt><trkpt lat="60.2524295915" lon="30.4887714610"><ele>60.22</ele><time>2026-08-29T13:08:00Z</time></trkpt><trkpt lat="60.2523276675" lon="30.4888128676"><ele>60.22</ele><time>2026-08-29T13:08:07Z</time></trkpt><trkpt lat="60.2521616220" lon="30.4888161365"><ele>60.70</ele><time>2026-08-29T13:08:18Z</time></trkpt><trkpt lat="60.2521513961" lon="30.4888176452"><ele>60.70</ele><time>2026-08-29T13:08:19Z</time></trkpt><trkpt lat="60.2520640567" lon="30.4888314754"><ele>61.18</ele><time>2026-08-29T13:08:27Z</time></trkpt><trkpt lat="60.2519439440" lon="30.4888361692"><ele>61.18</ele><time>2026-08-29T13:08:34Z</time></trkpt><trkpt lat="60.2518680878" lon="30.4888950940"><ele>61.18</ele><time>2026-08-29T13:08:38Z</time></trkpt><trkpt lat="60.2517884597" lon="30.4889314715"><ele>61.18</ele><time>2026-08-29T13:08:44Z</time></trkpt><trkpt lat="60.2516531758" lon="30.4890193138"><ele>61.18</ele><time>2026-08-29T13:08:53Z</time></trkpt><trkpt lat="60.2515857015" lon="30.4891260155"><ele>61.66</ele><time>2026-08-29T13:09:02Z</time></trkpt><trkpt lat="60.2515194006" lon="30.4892530013"><ele>60.70</ele><time>2026-08-29T13:09:12Z</time></trkpt><trkpt lat="60.2514961828" lon="30.4892693460"><ele>60.70</ele><time>2026-08-29T13:09:14Z</time></trkpt><trkpt lat="60.2514398564" lon="30.4894077312"><ele>60.70</ele><time>2026-08-29T13:09:19Z</time></trkpt><trkpt lat="60.2513971087" lon="30.4894942325"><ele>60.70</ele><time>2026-08-29T13:09:24Z</time></trkpt><trkpt lat="60.2513231803" lon="30.4895659816"><ele>60.70</ele><time>2026-08-29T13:09:33Z</time></trkpt><trkpt lat="60.2513054106" lon="30.4895827454"><ele>60.70</ele><time>2026-08-29T13:09:53Z</time></trkpt><trkpt lat="60.2513402794" lon="30.4895338789"><ele>60.70</ele><time>2026-08-29T13:10:02Z</time></trkpt><trkpt lat="60.2514589671" lon="30.4894208070"><ele>60.70</ele><time>2026-08-29T13:10:09Z</time></trkpt><trkpt lat="60.2514918242" lon="30.4893029574"><ele>61.18</ele><time>2026-08-29T13:10:13Z</time></trkpt><trkpt lat="60.2515020501" lon="30.4892360698"><ele>61.18</ele><time>2026-08-29T13:10:15Z</time></trkpt><trkpt lat="60.2515709493" lon="30.4890324734"><ele>61.18</ele><time>2026-08-29T13:10:25Z</time></trkpt><trkpt lat="60.2517846879" lon="30.4888831079"><ele>61.18</ele><time>2026-08-29T13:10:37Z</time></trkpt><trkpt lat="60.2519788966" lon="30.4887816869"><ele>61.18</ele><time>2026-08-29T13:10:50Z</time></trkpt><trkpt lat="60.2521580178" lon="30.4887593072"><ele>61.18</ele><time>2026-08-29T13:11:01Z</time></trkpt><trkpt lat="60.2523010969" lon="30.4887617379"><ele>61.18</ele><time>2026-08-29T13:11:10Z</time></trkpt><trkpt lat="60.2524257358" lon="30.4887365084"><ele>61.18</ele><time>2026-08-29T13:11:18Z</time></trkpt><trkpt lat="60.2526468504" lon="30.4886581376"><ele>61.18</ele><time>2026-08-29T13:11:31Z</time></trkpt><trkpt lat="60.2528108004" lon="30.4886265378"><ele>61.18</ele><time>2026-08-29T13:11:43Z</time></trkpt><trkpt lat="60.2529723197" lon="30.4886206705"><ele>61.18</ele><time>2026-08-29T13:11:54Z</time></trkpt><trkpt lat="60.2531334199" lon="30.4885565490"><ele>60.22</ele><time>2026-08-29T13:12:05Z</time></trkpt><trkpt lat="60.2532532811" lon="30.4884594027"><ele>59.74</ele><time>2026-08-29T13:12:15Z</time></trkpt><trkpt lat="60.2532665245" lon="30.4884513561"><ele>59.74</ele><time>2026-08-29T13:12:16Z</time></trkpt><trkpt lat="60.2534347493" lon="30.4882448260"><ele>58.78</ele><time>2026-08-29T13:12:27Z</time></trkpt><trkpt lat="60.2536038961" lon="30.4881470092"><ele>58.78</ele><time>2026-08-29T13:12:38Z</time></trkpt><trkpt lat="60.2537323069" lon="30.4880192690"><ele>58.30</ele><time>2026-08-29T13:12:47Z</time></trkpt><trkpt lat="60.2538249269" lon="30.4879266489"><ele>58.30</ele><time>2026-08-29T13:12:53Z</time></trkpt><trkpt lat="60.2539824229" lon="30.4878507089"><ele>58.78</ele><time>2026-08-29T13:13:03Z</time></trkpt><trkpt lat="60.2539970912" lon="30.4878547322"><ele>58.78</ele><time>2026-08-29T13:13:04Z</time></trkpt><trkpt lat="60.2541526593" lon="30.4879065324"><ele>58.78</ele><time>2026-08-29T13:13:14Z</time></trkpt><trkpt lat="60.2543094847" lon="30.4879288282"><ele>58.78</ele><time>2026-08-29T13:13:23Z</time></trkpt><trkpt lat="60.2544570062" lon="30.4879036825"><ele>58.30</ele><time>2026-08-29T13:13:31Z</time></trkpt><trkpt lat="60.2545969840" lon="30.4879152495"><ele>58.30</ele><time>2026-08-29T13:13:40Z</time></trkpt><trkpt lat="60.2546847425" lon="30.4879479390"><ele>58.30</ele><time>2026-08-29T13:13:46Z</time></trkpt><trkpt lat="60.2548490278" lon="30.4879816342"><ele>58.78</ele><time>2026-08-29T13:13:57Z</time></trkpt><trkpt lat="60.2549203578" lon="30.4879752640"><ele>58.78</ele><time>2026-08-29T13:14:01Z</time></trkpt><trkpt lat="60.2549247164" lon="30.4878606834"><ele>58.78</ele><time>2026-08-29T13:14:07Z</time></trkpt><trkpt lat="60.2548667975" lon="30.4877734277"><ele>58.78</ele><time>2026-08-29T13:14:17Z</time></trkpt><trkpt lat="60.2548627742" lon="30.4877546523"><ele>58.78</ele><time>2026-08-29T13:14:24Z</time></trkpt><trkpt lat="60.2548414003" lon="30.4877418280"><ele>58.78</ele><time>2026-08-29T13:14:33Z</time></trkpt><trkpt lat="60.2548445016" lon="30.4877336975"><ele>58.78</ele><time>2026-08-29T13:14:43Z</time></trkpt><trkpt lat="60.2548612654" lon="30.4877347033"><ele>57.34</ele><time>2026-08-29T13:15:00Z</time></trkpt><trkpt lat="60.2549714036" lon="30.4878074583"><ele>57.82</ele><time>2026-08-29T13:15:13Z</time></trkpt><trkpt lat="60.2548879199" lon="30.4879656248"><ele>57.82</ele><time>2026-08-29T13:15:20Z</time></trkpt><trkpt lat="60.2544256579" lon="30.4879481904"><ele>57.82</ele><time>2026-08-29T13:15:31Z</time></trkpt><trkpt lat="60.2537284512" lon="30.4879590031"><ele>57.82</ele><time>2026-08-29T13:15:46Z</time></trkpt><trkpt lat="60.2534663491" lon="30.4883260466"><ele>57.82</ele><time>2026-08-29T13:15:59Z</time></trkpt><trkpt lat="60.2531371918" lon="30.4887120333"><ele>59.26</ele><time>2026-08-29T13:16:11Z</time></trkpt><trkpt lat="60.2526534721" lon="30.4887999594"><ele>63.10</ele><time>2026-08-29T13:16:26Z</time></trkpt><trkpt lat="60.2522950619" lon="30.4890592117"><ele>64.07</ele><time>2026-08-29T13:16:40Z</time></trkpt><trkpt lat="60.2519813273" lon="30.4893885367"><ele>62.62</ele><time>2026-08-29T13:16:52Z</time></trkpt><trkpt lat="60.2516986057" lon="30.4897798877"><ele>62.62</ele><time>2026-08-29T13:17:04Z</time></trkpt><trkpt lat="60.2511444781" lon="30.4903217778"><ele>62.62</ele><time>2026-08-29T13:17:15Z</time></trkpt><trkpt lat="60.2507466730" lon="30.4907080159"><ele>61.66</ele><time>2026-08-29T13:17:29Z</time></trkpt><trkpt lat="60.2504249755" lon="30.4905630089"><ele>60.70</ele><time>2026-08-29T13:17:41Z</time></trkpt><trkpt lat="60.2499065548" lon="30.4899390601"><ele>60.70</ele><time>2026-08-29T13:17:55Z</time></trkpt><trkpt lat="60.2495102584" lon="30.4896508064"><ele>64.07</ele><time>2026-08-29T13:18:06Z</time></trkpt><trkpt lat="60.2493924927" lon="30.4895195458"><ele>66.95</ele><time>2026-08-29T13:18:11Z</time></trkpt><trkpt lat="60.2491673548" lon="30.4891978484"><ele>70.31</ele><time>2026-08-29T13:18:18Z</time></trkpt><trkpt lat="60.2483790368" lon="30.4881342687"><ele>73.20</ele><time>2026-08-29T13:18:33Z</time></trkpt><trkpt lat="60.2478793077" lon="30.4874106590"><ele>76.56</ele><time>2026-08-29T13:18:46Z</time></trkpt><trkpt lat="60.2473028004" lon="30.4870519135"><ele>78.48</ele><time>2026-08-29T13:19:00Z</time></trkpt><trkpt lat="60.2468053345" lon="30.4866419546"><ele>77.04</ele><time>2026-08-29T13:19:12Z</time></trkpt><trkpt lat="60.2464439068" lon="30.4860960413"><ele>76.08</ele><time>2026-08-29T13:19:25Z</time></trkpt><trkpt lat="60.2463447489" lon="30.4854654707"><ele>74.64</ele><time>2026-08-29T13:19:38Z</time></trkpt><trkpt lat="60.2463441622" lon="30.4852878582"><ele>74.64</ele><time>2026-08-29T13:19:51Z</time></trkpt><trkpt lat="60.2463701461" lon="30.4853130877"><ele>74.64</ele><time>2026-08-29T13:20:10Z</time></trkpt><trkpt lat="60.2463411447" lon="30.4850084055"><ele>74.16</ele><time>2026-08-29T13:20:24Z</time></trkpt><trkpt lat="60.2461931203" lon="30.4843600653"><ele>73.68</ele><time>2026-08-29T13:20:38Z</time></trkpt><trkpt lat="60.2461895160" lon="30.4837768525"><ele>71.76</ele><time>2026-08-29T13:20:54Z</time></trkpt><trkpt lat="60.2461801283" lon="30.4837567359"><ele>70.31</ele><time>2026-08-29T13:21:07Z</time></trkpt><trkpt lat="60.2460435871" lon="30.4835055303"><ele>67.91</ele><time>2026-08-29T13:21:22Z</time></trkpt><trkpt lat="60.2458943892" lon="30.4828296136"><ele>67.43</ele><time>2026-08-29T13:21:34Z</time></trkpt><trkpt lat="60.2458680701" lon="30.4827515781"><ele>67.43</ele><time>2026-08-29T13:21:36Z</time></trkpt><trkpt lat="60.2457790542" lon="30.4826437868"><ele>66.95</ele><time>2026-08-29T13:21:46Z</time></trkpt><trkpt lat="60.2457678225" lon="30.4826463014"><ele>66.95</ele><time>2026-08-29T13:21:56Z</time></trkpt><trkpt lat="60.2457684930" lon="30.4826516658"><ele>66.95</ele><time>2026-08-29T13:22:07Z</time></trkpt><trkpt lat="60.2457881067" lon="30.4827215709"><ele>67.43</ele><time>2026-08-29T13:22:19Z</time></trkpt><trkpt lat="60.2458573412" lon="30.4828298651"><ele>67.43</ele><time>2026-08-29T13:22:31Z</time></trkpt><trkpt lat="60.2458641306" lon="30.4828571901"><ele>67.43</ele><time>2026-08-29T13:22:42Z</time></trkpt><trkpt lat="60.2458757814" lon="30.4828905500"><ele>67.91</ele><time>2026-08-29T13:22:56Z</time></trkpt><trkpt lat="60.2458922938" lon="30.4829159472"><ele>67.91</ele><time>2026-08-29T13:23:11Z</time></trkpt><trkpt lat="60.2458949760" lon="30.4828971718"><ele>67.91</ele><time>2026-08-29T13:23:31Z</time></trkpt><trkpt lat="60.2458949760" lon="30.4828985129"><ele>67.91</ele><time>2026-08-29T13:23:46Z</time></trkpt><trkpt lat="60.2458777931" lon="30.4828955792"><ele>68.39</ele><time>2026-08-29T13:23:56Z</time></trkpt><trkpt lat="60.2458840795" lon="30.4828941543"><ele>68.39</ele><time>2026-08-29T13:24:13Z</time></trkpt><trkpt lat="60.2458784636" lon="30.4828772228"><ele>68.39</ele><time>2026-08-29T13:24:30Z</time></trkpt><trkpt lat="60.2458774578" lon="30.4828629736"><ele>68.87</ele><time>2026-08-29T13:24:45Z</time></trkpt><trkpt lat="60.2458822355" lon="30.4828715231"><ele>68.87</ele><time>2026-08-29T13:24:59Z</time></trkpt><trkpt lat="60.2458839118" lon="30.4828825034"><ele>68.87</ele><time>2026-08-29T13:25:20Z</time></trkpt><trkpt lat="60.2458829060" lon="30.4828810785"><ele>68.87</ele><time>2026-08-29T13:25:39Z</time></trkpt><trkpt lat="60.2459205408" lon="30.4828804079"><ele>69.35</ele><time>2026-08-29T13:25:58Z</time></trkpt><trkpt lat="60.2459450159" lon="30.4828506522"><ele>69.35</ele><time>2026-08-29T13:26:13Z</time></trkpt><trkpt lat="60.2460054494" lon="30.4829244968"><ele>69.35</ele><time>2026-08-29T13:26:28Z</time></trkpt><trkpt lat="60.2460293379" lon="30.4831469525"><ele>70.79</ele><time>2026-08-29T13:26:44Z</time></trkpt><trkpt lat="60.2461041044" lon="30.4834176879"><ele>73.68</ele><time>2026-08-29T13:26:55Z</time></trkpt><trkpt lat="60.2461483609" lon="30.4835968930"><ele>77.04</ele><time>2026-08-29T13:27:01Z</time></trkpt><trkpt lat="60.2461594250" lon="30.4843046609"><ele>77.52</ele><time>2026-08-29T13:27:16Z</time></trkpt><trkpt lat="60.2463170048" lon="30.4850020353"><ele>78.00</ele><time>2026-08-29T13:27:33Z</time></trkpt><trkpt lat="60.2464938629" lon="30.4856969789"><ele>78.48</ele><time>2026-08-29T13:27:48Z</time></trkpt><trkpt lat="60.2465886623" lon="30.4864414595"><ele>80.89</ele><time>2026-08-29T13:28:04Z</time></trkpt><trkpt lat="60.2466823719" lon="30.4866503365"><ele>81.85</ele><time>2026-08-29T13:28:13Z</time></trkpt><trkpt lat="60.2471457236" lon="30.4869795777"><ele>82.33</ele><time>2026-08-29T13:28:32Z</time></trkpt><trkpt lat="60.2475386672" lon="30.4871768877"><ele>82.81</ele><time>2026-08-29T13:28:46Z</time></trkpt><trkpt lat="60.2478574309" lon="30.4872571025"><ele>83.29</ele><time>2026-08-29T13:28:59Z</time></trkpt><trkpt lat="60.2481254842" lon="30.4877467733"><ele>82.33</ele><time>2026-08-29T13:29:13Z</time></trkpt><trkpt lat="60.2484301664" lon="30.4883547965"><ele>80.41</ele><time>2026-08-29T13:29:27Z</time></trkpt><trkpt lat="60.2488428075" lon="30.4890499078"><ele>78.00</ele><time>2026-08-29T13:29:39Z</time></trkpt><trkpt lat="60.2489614952" lon="30.4892570246"><ele>75.12</ele><time>2026-08-29T13:29:43Z</time></trkpt><trkpt lat="60.2490804344" lon="30.4894225672"><ele>71.76</ele><time>2026-08-29T13:29:47Z</time></trkpt><trkpt lat="60.2494380064" lon="30.4895907920"><ele>70.31</ele><time>2026-08-29T13:29:59Z</time></trkpt><trkpt lat="60.2499405853" lon="30.4898876790"><ele>69.83</ele><time>2026-08-29T13:30:13Z</time></trkpt><trkpt lat="60.2501391526" lon="30.4901946243"><ele>68.87</ele><time>2026-08-29T13:30:26Z</time></trkpt><trkpt lat="60.2501395717" lon="30.4901963845"><ele>68.87</ele><time>2026-08-29T13:30:27Z</time></trkpt><trkpt lat="60.2502785437" lon="30.4905226082"><ele>69.35</ele><time>2026-08-29T13:30:36Z</time></trkpt><trkpt lat="60.2507432364" lon="30.4904363584"><ele>69.35</ele><time>2026-08-29T13:30:48Z</time></trkpt><trkpt lat="60.2511909138" lon="30.4900239687"><ele>70.31</ele><time>2026-08-29T13:31:01Z</time></trkpt><trkpt lat="60.2513989527" lon="30.4894999322"><ele>70.79</ele><time>2026-08-29T13:31:13Z</time></trkpt><trkpt lat="60.2516791597" lon="30.4890338145"><ele>70.79</ele><time>2026-08-29T13:31:30Z</time></trkpt><trkpt lat="60.2520171180" lon="30.4887971096"><ele>72.24</ele><time>2026-08-29T13:31:43Z</time></trkpt><trkpt lat="60.2524535637" lon="30.4886308126"><ele>72.24</ele><time>2026-08-29T13:31:59Z</time></trkpt><trkpt lat="60.2530099545" lon="30.4886333272"><ele>72.24</ele><time>2026-08-29T13:32:13Z</time></trkpt><trkpt lat="60.2533435542" lon="30.4884328321"><ele>69.83</ele><time>2026-08-29T13:32:24Z</time></trkpt><trkpt lat="60.2536340710" lon="30.4880006611"><ele>69.35</ele><time>2026-08-29T13:32:38Z</time></trkpt><trkpt lat="60.2540179621" lon="30.4878792912"><ele>68.39</ele><time>2026-08-29T13:32:51Z</time></trkpt><trkpt lat="60.2546832338" lon="30.4879844002"><ele>68.39</ele><time>2026-08-29T13:33:04Z</time></trkpt><trkpt lat="60.2549904305" lon="30.4881651141"><ele>68.39</ele><time>2026-08-29T13:33:14Z</time></trkpt><trkpt lat="60.2549899276" lon="30.4882200994"><ele>68.39</ele><time>2026-08-29T13:33:15Z</time></trkpt><trkpt lat="60.2549854014" lon="30.4882743303"><ele>68.39</ele><time>2026-08-29T13:33:16Z</time></trkpt><trkpt lat="60.2549108025" lon="30.4892112594"><ele>68.39</ele><time>2026-08-29T13:33:26Z</time></trkpt><trkpt lat="60.2549094614" lon="30.4896544944"><ele>67.91</ele><time>2026-08-29T13:33:32Z</time></trkpt><trkpt lat="60.2549247164" lon="30.4896652233"><ele>67.91</ele><time>2026-08-29T13:33:33Z</time></trkpt><trkpt lat="60.2552495152" lon="30.4897354636"><ele>66.95</ele><time>2026-08-29T13:33:42Z</time></trkpt><trkpt lat="60.2558917366" lon="30.4899022635"><ele>66.95</ele><time>2026-08-29T13:33:54Z</time></trkpt><trkpt lat="60.2568573318" lon="30.4901410639"><ele>66.47</ele><time>2026-08-29T13:34:10Z</time></trkpt><trkpt lat="60.2574458253" lon="30.4902807903"><ele>65.99</ele><time>2026-08-29T13:34:22Z</time></trkpt><trkpt lat="60.2575243637" lon="30.4903387930"><ele>65.51</ele><time>2026-08-29T13:34:30Z</time></trkpt><trkpt lat="60.2574819513" lon="30.4903697222"><ele>65.03</ele><time>2026-08-29T13:34:37Z</time></trkpt><trkpt lat="60.2574711386" lon="30.4903561436"><ele>65.03</ele><time>2026-08-29T13:34:49Z</time></trkpt><trkpt lat="60.2574682888" lon="30.4903311655"><ele>65.03</ele><time>2026-08-29T13:35:00Z</time></trkpt><trkpt lat="60.2574793529" lon="30.4903206043"><ele>65.03</ele><time>2026-08-29T13:35:19Z</time></trkpt><trkpt lat="60.2574700490" lon="30.4902866576"><ele>65.03</ele><time>2026-08-29T13:35:30Z</time></trkpt><trkpt lat="60.2574629243" lon="30.4902942851"><ele>65.03</ele><time>2026-08-29T13:35:42Z</time></trkpt><trkpt lat="60.2574557997" lon="30.4903058521"><ele>65.03</ele><time>2026-08-29T13:35:53Z</time></trkpt><trkpt lat="60.2574640978" lon="30.4903131444"><ele>65.51</ele><time>2026-08-29T13:36:04Z</time></trkpt><trkpt lat="60.2574712224" lon="30.4903118033"><ele>65.51</ele><time>2026-08-29T13:36:16Z</time></trkpt><trkpt lat="60.2574816160" lon="30.4903080314"><ele>65.51</ele><time>2026-08-29T13:36:24Z</time></trkpt><trkpt lat="60.2574698813" lon="30.4902957100"><ele>65.51</ele><time>2026-08-29T13:36:37Z</time></trkpt><trkpt lat="60.2574735694" lon="30.4903064389"><ele>65.51</ele><time>2026-08-29T13:36:43Z</time></trkpt><trkpt lat="60.2574713901" lon="30.4903063551"><ele>65.51</ele><time>2026-08-29T13:36:51Z</time></trkpt><trkpt lat="60.2574711386" lon="30.4903235380"><ele>65.51</ele><time>2026-08-29T13:37:02Z</time></trkpt><trkpt lat="60.2574671153" lon="30.4903824627"><ele>65.51</ele><time>2026-08-29T13:37:07Z</time></trkpt><trkpt lat="60.2574557997" lon="30.4904948641"><ele>65.51</ele><time>2026-08-29T13:37:17Z</time></trkpt><trkpt lat="60.2574588172" lon="30.4905917589"><ele>65.51</ele><time>2026-08-29T13:37:21Z</time></trkpt><trkpt lat="60.2574683726" lon="30.4906932637"><ele>65.51</ele><time>2026-08-29T13:37:30Z</time></trkpt><trkpt lat="60.2574789338" lon="30.4906824511"><ele>65.51</ele><time>2026-08-29T13:37:47Z</time></trkpt><trkpt lat="60.2574754972" lon="30.4905413836"><ele>65.51</ele><time>2026-08-29T13:38:02Z</time></trkpt><trkpt lat="60.2575047500" lon="30.4905319959"><ele>66.95</ele><time>2026-08-29T13:38:08Z</time></trkpt><trkpt lat="60.2575586457" lon="30.4905095324"><ele>66.95</ele><time>2026-08-29T13:38:27Z</time></trkpt><trkpt lat="60.2575585619" lon="30.4905096162"><ele>66.95</ele><time>2026-08-29T13:38:28Z</time></trkpt><trkpt lat="60.2575100306" lon="30.4906146415"><ele>66.95</ele><time>2026-08-29T13:38:32Z</time></trkpt><trkpt lat="60.2574654389" lon="30.4906117916"><ele>66.95</ele><time>2026-08-29T13:38:44Z</time></trkpt><trkpt lat="60.2574652713" lon="30.4905449878"><ele>66.95</ele><time>2026-08-29T13:38:47Z</time></trkpt><trkpt lat="60.2574721444" lon="30.4903354403"><ele>66.95</ele><time>2026-08-29T13:38:57Z</time></trkpt><trkpt lat="60.2574695460" lon="30.4902956262"><ele>66.95</ele><time>2026-08-29T13:39:11Z</time></trkpt><trkpt lat="60.2574773412" lon="30.4903046787"><ele>66.95</ele><time>2026-08-29T13:39:21Z</time></trkpt><trkpt lat="60.2574808616" lon="30.4903097916"><ele>66.95</ele><time>2026-08-29T13:39:31Z</time></trkpt><trkpt lat="60.2574815322" lon="30.4903770145"><ele>66.95</ele><time>2026-08-29T13:39:39Z</time></trkpt><trkpt lat="60.2574594878" lon="30.4904671200"><ele>66.95</ele><time>2026-08-29T13:39:45Z</time></trkpt><trkpt lat="60.2574590687" lon="30.4906846303"><ele>66.95</ele><time>2026-08-29T13:39:56Z</time></trkpt><trkpt lat="60.2574651036" lon="30.4907096084"><ele>66.95</ele><time>2026-08-29T13:40:09Z</time></trkpt><trkpt lat="60.2574588172" lon="30.4907156434"><ele>66.95</ele><time>2026-08-29T13:40:28Z</time></trkpt><trkpt lat="60.2574568056" lon="30.4907036573"><ele>66.95</ele><time>2026-08-29T13:40:40Z</time></trkpt><trkpt lat="60.2574702166" lon="30.4906242806"><ele>66.95</ele><time>2026-08-29T13:40:54Z</time></trkpt><trkpt lat="60.2574782632" lon="30.4904975463"><ele>67.43</ele><time>2026-08-29T13:40:59Z</time></trkpt><trkpt lat="60.2574742399" lon="30.4903234541"><ele>67.43</ele><time>2026-08-29T13:41:10Z</time></trkpt><trkpt lat="60.2574617509" lon="30.4903030023"><ele>67.43</ele><time>2026-08-29T13:41:28Z</time></trkpt><trkpt lat="60.2574600745" lon="30.4902826343"><ele>67.43</ele><time>2026-08-29T13:41:44Z</time></trkpt><trkpt lat="60.2574561350" lon="30.4902657028"><ele>67.43</ele><time>2026-08-29T13:42:05Z</time></trkpt><trkpt lat="60.2574536204" lon="30.4902451672"><ele>67.43</ele><time>2026-08-29T13:42:22Z</time></trkpt><trkpt lat="60.2574547101" lon="30.4902315885"><ele>67.43</ele><time>2026-08-29T13:42:46Z</time></trkpt><trkpt lat="60.2574567217" lon="30.4902348574"><ele>67.91</ele><time>2026-08-29T13:43:02Z</time></trkpt><trkpt lat="60.2574588172" lon="30.4902460054"><ele>67.91</ele><time>2026-08-29T13:43:23Z</time></trkpt><trkpt lat="60.2574583143" lon="30.4902464245"><ele>67.91</ele><time>2026-08-29T13:43:45Z</time></trkpt><trkpt lat="60.2574517764" lon="30.4902594164"><ele>67.91</ele><time>2026-08-29T13:44:04Z</time></trkpt><trkpt lat="60.2574501000" lon="30.4902626015"><ele>67.91</ele><time>2026-08-29T13:44:25Z</time></trkpt><trkpt lat="60.2574454062" lon="30.4902644455"><ele>68.39</ele><time>2026-08-29T13:44:44Z</time></trkpt><trkpt lat="60.2574510220" lon="30.4902695585"><ele>68.39</ele><time>2026-08-29T13:45:02Z</time></trkpt><trkpt lat="60.2574501839" lon="30.4902712349"><ele>68.39</ele><time>2026-08-29T13:45:20Z</time></trkpt><trkpt lat="60.2574478369" lon="30.4902769346"><ele>68.39</ele><time>2026-08-29T13:45:35Z</time></trkpt><trkpt lat="60.2574500162" lon="30.4902963806"><ele>68.39</ele><time>2026-08-29T13:45:49Z</time></trkpt><trkpt lat="60.2574591525" lon="30.4903112166"><ele>68.39</ele><time>2026-08-29T13:46:11Z</time></trkpt><trkpt lat="60.2574614994" lon="30.4902962130"><ele>68.87</ele><time>2026-08-29T13:46:26Z</time></trkpt><trkpt lat="60.2574671991" lon="30.4902713187"><ele>68.87</ele><time>2026-08-29T13:46:50Z</time></trkpt><trkpt lat="60.2574691270" lon="30.4902685527"><ele>68.87</ele><time>2026-08-29T13:47:11Z</time></trkpt><trkpt lat="60.2574708033" lon="30.4902634397"><ele>68.87</ele><time>2026-08-29T13:47:33Z</time></trkpt><trkpt lat="60.2574736532" lon="30.4902501963"><ele>68.87</ele><time>2026-08-29T13:47:56Z</time></trkpt><trkpt lat="60.2574734017" lon="30.4902563989"><ele>68.87</ele><time>2026-08-29T13:48:23Z</time></trkpt><trkpt lat="60.2574750781" lon="30.4902626015"><ele>69.35</ele><time>2026-08-29T13:48:30Z</time></trkpt></trkseg></trk></gpx>